Time;durP1;ratioP1;P1;durP2;ratioP2;P2;SDS_P1;SDS_P2;PMS_P1;PMS_P2;Temp;Humidity;BMP_temperature;BMP_pressure;BME280_temperature;BME280_humidity;BME280_pressure;Samples;Min_cycle;Max_cycle;Signal;HPM_P1;HPM_P2
2022/06/11 00:00:05;;;;;;;357.38;219.77;;;;;;;19.41;100.00;98979.94;412077;23;1263;-74
2022/06/11 00:00:16;;;;;;;358.23;219.23;;;;;;;19.42;100.00;98981.59;408009;24;917;-74
2022/06/11 00:00:27;;;;;;;358.15;217.75;;;;;;;19.41;100.00;98979.94;407930;24;886;-74
2022/06/11 00:00:39;;;;;;;357.98;218.45;;;;;;;19.43;100.00;98977.97;409980;23;892;-74
2022/06/11 00:00:49;;;;;;;360.20;217.85;;;;;;;19.44;100.00;98977.00;410135;24;784;-75
2022/06/11 00:01:00;;;;;;;360.00;217.48;;;;;;;19.45;100.00;98978.69;409939;24;1223;-74
2022/06/11 00:01:32;;;;;;;360.92;219.05;;;;;;;19.46;100.00;98977.72;407878;24;1222;-73
2022/06/11 00:01:47;;;;;;;358.52;221.20;;;;;;;19.49;100.00;98981.91;412904;23;1410;-74
2022/06/11 00:02:03;;;;;;;357.48;221.88;;;;;;;19.50;100.00;98980.91;413746;23;1454;-73
2022/06/11 00:02:13;;;;;;;360.10;219.30;;;;;;;19.47;100.00;98979.41;412161;23;896;-74
2022/06/11 00:02:24;;;;;;;361.80;216.83;;;;;;;19.42;100.00;98981.59;411714;23;768;-74
2022/06/11 00:02:34;;;;;;;358.92;211.55;;;;;;;19.42;100.00;98975.47;410069;24;873;-74
2022/06/11 00:02:45;;;;;;;359.13;213.27;;;;;;;19.43;100.00;98980.63;408546;24;790;-73
2022/06/11 00:02:57;;;;;;;355.50;212.43;;;;;;;19.40;100.00;98988.03;408241;24;1259;-73
2022/06/11 00:03:07;;;;;;;360.77;217.93;;;;;;;19.42;100.00;98980.78;406514;24;900;-74
2022/06/11 00:03:18;;;;;;;361.70;220.17;;;;;;;19.41;100.00;98979.09;405917;24;850;-73
2022/06/11 00:03:28;;;;;;;364.05;223.00;;;;;;;19.42;100.00;98972.81;408298;24;821;-73
2022/06/11 00:03:39;;;;;;;363.88;223.38;;;;;;;19.41;100.00;98973.78;411950;23;1266;-74
2022/06/11 00:03:52;;;;;;;360.97;220.63;;;;;;;19.45;100.00;98975.19;412061;23;900;-74
2022/06/11 00:04:05;;;;;;;359.10;219.38;;;;;;;19.45;100.00;98981.34;414069;23;829;-73
2022/06/11 00:04:20;;;;;;;358.40;220.13;;;;;;;19.45;100.00;98978.69;408136;24;936;-73
2022/06/11 00:04:38;;;;;;;360.20;222.13;;;;;;;19.42;100.00;98976.31;409563;24;5244;-74
2022/06/11 00:04:49;;;;;;;361.13;224.55;;;;;;;19.41;100.00;98979.94;410216;24;817;-73
2022/06/11 00:04:59;;;;;;;361.37;225.80;;;;;;;19.40;100.00;98978.25;409581;24;1265;-73
2022/06/11 00:05:10;;;;;;;361.58;223.43;;;;;;;19.41;100.00;98974.63;410128;24;882;-73
2022/06/11 00:05:21;;;;;;;364.13;227.10;;;;;;;19.41;100.00;98977.28;411763;23;1265;-73
2022/06/11 00:05:31;;;;;;;364.02;225.63;;;;;;;19.42;100.00;98978.97;412154;23;901;-73
2022/06/11 00:05:42;;;;;;;363.00;223.57;;;;;;;19.40;100.00;98986.22;408094;24;1226;-73
2022/06/11 00:05:52;;;;;;;362.60;222.05;;;;;;;19.39;100.00;98979.22;408318;24;817;-73
2022/06/11 00:06:04;;;;;;;361.63;222.20;;;;;;;19.38;100.00;98974.88;409981;24;1060;-73
2022/06/11 00:06:14;;;;;;;362.95;225.00;;;;;;;19.40;100.00;98972.94;408441;24;814;-73
2022/06/11 00:06:25;;;;;;;363.50;225.77;;;;;;;19.42;100.00;98976.31;409562;24;1231;-73
2022/06/11 00:06:38;;;;;;;364.67;225.88;;;;;;;19.44;100.00;98978.81;409979;24;817;-72
2022/06/11 00:06:51;;;;;;;365.05;225.52;;;;;;;19.43;100.00;98974.50;407988;24;1454;-73
2022/06/11 00:07:06;;;;;;;361.92;219.68;;;;;;;19.45;100.00;98969.88;410009;24;814;-73
2022/06/11 00:07:21;;;;;;;363.60;222.05;;;;;;;19.43;100.00;98975.31;410014;24;1386;-74
2022/06/11 00:07:31;;;;;;;362.50;221.57;;;;;;;19.42;100.00;98976.31;411657;23;1182;-73
2022/06/11 00:07:42;;;;;;;361.50;220.83;;;;;;;19.35;100.00;98977.81;410008;24;1402;-73
2022/06/11 00:07:52;;;;;;;362.25;222.95;;;;;;;19.31;100.00;98980.84;409356;24;1483;-74
2022/06/11 00:08:03;;;;;;;365.13;228.07;;;;;;;19.28;100.00;98974.00;407694;24;1213;-73
2022/06/11 00:08:14;;;;;;;368.28;229.60;;;;;;;19.28;100.00;98979.31;408195;24;853;-73
2022/06/11 00:08:25;;;;;;;366.43;227.73;;;;;;;19.26;100.00;98971.47;412039;23;1269;-74
2022/06/11 00:08:36;;;;;;;364.60;223.35;;;;;;;19.26;100.00;98975.94;409043;24;1282;-74
2022/06/11 00:08:46;;;;;;;361.08;220.82;;;;;;;19.26;100.00;98981.25;410097;24;783;-73
2022/06/11 00:08:57;;;;;;;361.13;222.43;;;;;;;19.30;100.00;98976.53;406100;24;1275;-75
2022/06/11 00:09:08;;;;;;;362.60;223.87;;;;;;;19.31;100.00;98979.03;409862;24;1247;-74
2022/06/11 00:09:19;;;;;;;362.10;222.73;;;;;;;19.27;100.00;98974.97;410084;24;912;-74
2022/06/11 00:09:29;;;;;;;363.27;221.38;;;;;;;19.26;100.00;98975.94;409802;24;1184;-75
2022/06/11 00:09:39;;;;;;;363.63;225.03;;;;;;;19.27;100.00;98975.81;408497;24;1195;-74
2022/06/11 00:09:51;;;;;;;364.02;226.30;;;;;;;19.27;100.00;98985.59;409814;24;1296;-75
2022/06/11 00:10:04;;;;;;;362.17;227.52;;;;;;;19.29;100.00;98975.69;409687;24;1655;-74
2022/06/11 00:10:14;;;;;;;361.02;224.63;;;;;;;19.31;100.00;98978.22;409934;24;981;-74
2022/06/11 00:10:25;;;;;;;360.13;221.40;;;;;;;19.30;100.00;98977.38;406152;24;1192;-74
2022/06/11 00:10:35;;;;;;;360.87;221.30;;;;;;;19.30;100.00;98969.41;411775;23;1379;-74
2022/06/11 00:10:46;;;;;;;361.20;221.32;;;;;;;19.30;100.00;98969.41;409905;24;816;-74
2022/06/11 00:10:56;;;;;;;363.37;225.50;;;;;;;19.32;100.00;98975.41;410063;24;1284;-75
2022/06/11 00:11:07;;;;;;;364.08;225.20;;;;;;;19.33;100.00;98974.44;410216;24;779;-74
2022/06/11 00:11:18;;;;;;;364.30;227.55;;;;;;;19.34;100.00;98965.50;410012;24;802;-74
2022/06/11 00:11:28;;;;;;;364.57;227.60;;;;;;;19.33;100.00;98974.44;409908;24;783;-74
2022/06/11 00:11:38;;;;;;;363.25;226.55;;;;;;;19.33;100.00;98981.56;410153;24;1256;-75
2022/06/11 00:11:51;;;;;;;363.93;227.07;;;;;;;19.28;100.00;98976.66;407815;24;1207;-74
2022/06/11 00:12:02;;;;;;;365.27;227.52;;;;;;;19.29;100.00;98975.69;410018;24;880;-74
2022/06/11 00:12:13;;;;;;;363.00;225.32;;;;;;;19.29;100.00;98965.06;409750;24;1278;-74
2022/06/11 00:12:24;;;;;;;361.50;224.70;;;;;;;19.29;100.00;98970.38;409774;24;1276;-74
2022/06/11 00:12:35;;;;;;;360.92;224.70;;;;;;;19.30;100.00;98976.53;407923;24;852;-75
2022/06/11 00:12:46;;;;;;;363.43;228.77;;;;;;;19.31;100.00;98963.13;409760;24;1499;-73
2022/06/11 00:12:56;;;;;;;363.47;226.17;;;;;;;19.33;100.00;98963.00;412057;23;1170;-73
2022/06/11 00:13:07;;;;;;;363.83;228.02;;;;;;;19.35;100.00;98967.19;408465;24;915;-75
2022/06/11 00:13:22;;;;;;;362.70;224.47;;;;;;;19.36;100.00;98963.56;411819;23;733;-73
2022/06/11 00:13:32;;;;;;;360.48;221.35;;;;;;;19.37;100.00;98965.25;411816;23;879;-74
2022/06/11 00:13:43;;;;;;;360.43;223.00;;;;;;;19.39;100.00;98965.94;408583;24;782;-73
2022/06/11 00:13:53;;;;;;;357.48;219.80;;;;;;;19.40;100.00;98967.63;410025;24;1542;-73
2022/06/11 00:14:04;;;;;;;358.05;221.40;;;;;;;19.41;100.00;98964.00;410052;24;853;-73
2022/06/11 00:14:15;;;;;;;358.33;221.80;;;;;;;19.43;100.00;98962.06;410287;24;786;-74
2022/06/11 00:14:28;;;;;;;358.08;223.85;;;;;;;19.44;100.00;98958.44;410229;24;1334;-75
2022/06/11 00:14:38;;;;;;;360.38;223.23;;;;;;;19.44;100.00;98966.41;406519;24;1242;-73
2022/06/11 00:14:49;;;;;;;359.40;222.00;;;;;;;19.46;100.00;98972.41;407868;24;1178;-74
2022/06/11 00:14:59;;;;;;;361.27;222.20;;;;;;;19.44;100.00;98970.84;411973;23;868;-74
2022/06/11 00:15:10;;;;;;;361.10;223.30;;;;;;;19.33;100.00;98966.50;408094;24;1345;-74
2022/06/11 00:15:20;;;;;;;363.95;224.25;;;;;;;19.32;100.00;98972.78;408109;24;1199;-73
2022/06/11 00:15:31;;;;;;;359.77;223.13;;;;;;;19.25;100.00;98964.50;408159;24;911;-73
2022/06/11 00:15:42;;;;;;;359.95;222.38;;;;;;;19.25;100.00;98968.97;411296;23;1217;-74
2022/06/11 00:15:53;;;;;;;361.92;224.38;;;;;;;19.22;100.00;98964.75;411671;23;1894;-74
2022/06/11 00:16:04;;;;;;;365.02;226.63;;;;;;;19.21;100.00;98963.06;413921;23;1288;-74
2022/06/11 00:16:14;;;;;;;365.20;227.00;;;;;;;19.22;100.00;98964.75;408213;24;1288;-74
2022/06/11 00:16:25;;;;;;;363.00;224.32;;;;;;;19.23;100.00;98965.59;409980;24;892;-74
2022/06/11 00:16:36;;;;;;;361.87;221.63;;;;;;;19.25;100.00;98963.66;406225;24;925;-74
2022/06/11 00:16:46;;;;;;;362.08;219.68;;;;;;;19.28;100.00;98958.09;410080;24;1105;-73
2022/06/11 00:16:57;;;;;;;360.60;217.85;;;;;;;19.30;100.00;98969.41;409876;24;828;-74
2022/06/11 00:17:08;;;;;;;361.70;219.77;;;;;;;19.32;100.00;98967.47;409211;24;813;-73
2022/06/11 00:17:19;;;;;;;362.52;224.90;;;;;;;19.33;100.00;98961.19;409639;24;1308;-73
2022/06/11 00:17:30;;;;;;;363.15;226.00;;;;;;;19.35;100.00;98959.22;411662;23;844;-73
2022/06/11 00:17:40;;;;;;;360.53;224.67;;;;;;;19.38;100.00;98961.63;411901;23;1323;-73
2022/06/11 00:17:52;;;;;;;364.08;227.23;;;;;;;19.39;100.00;98965.94;411872;23;841;-73
2022/06/11 00:18:04;;;;;;;365.35;226.20;;;;;;;19.41;100.00;98958.69;411866;23;880;-74
2022/06/11 00:18:15;;;;;;;365.42;225.48;;;;;;;19.39;100.00;98955.34;410014;24;1342;-75
2022/06/11 00:18:25;;;;;;;361.63;223.60;;;;;;;19.41;100.00;98957.84;411802;23;1348;-74
2022/06/11 00:18:36;;;;;;;360.63;221.50;;;;;;;19.42;100.00;98965.69;407800;24;1203;-73
2022/06/11 00:18:46;;;;;;;359.80;221.48;;;;;;;19.44;100.00;98960.25;412060;23;857;-73
2022/06/11 00:18:57;;;;;;;360.93;221.97;;;;;;;19.43;100.00;98956.75;409837;24;853;-74
2022/06/11 00:19:08;;;;;;;362.85;223.65;;;;;;;19.43;100.00;98951.44;409943;24;1432;-73
2022/06/11 00:19:20;;;;;;;362.13;222.85;;;;;;;19.45;100.00;98957.47;408032;24;1242;-73
2022/06/11 00:19:31;;;;;;;361.73;221.30;;;;;;;19.44;100.00;98954.94;409695;24;1333;-76
2022/06/11 00:19:41;;;;;;;361.63;222.15;;;;;;;19.45;100.00;98954.81;408368;24;1343;-73
2022/06/11 00:19:52;;;;;;;361.58;221.30;;;;;;;19.45;100.00;98954.81;407881;24;1319;-74
2022/06/11 00:20:04;;;;;;;362.33;223.17;;;;;;;19.43;100.00;98954.09;409749;24;751;-74
2022/06/11 00:20:15;;;;;;;363.02;222.80;;;;;;;19.41;100.00;98958.69;409826;24;987;-73
2022/06/11 00:20:29;;;;;;;361.95;221.90;;;;;;;19.41;100.00;98958.69;407788;24;868;-73
2022/06/11 00:20:40;;;;;;;359.42;218.70;;;;;;;19.43;100.00;98956.75;410003;24;779;-74
2022/06/11 00:20:50;;;;;;;361.77;222.77;;;;;;;19.43;100.00;98951.44;409887;24;1269;-74
2022/06/11 00:21:01;;;;;;;360.88;221.27;;;;;;;19.43;100.00;98956.75;409041;24;1374;-73
2022/06/11 00:21:11;;;;;;;362.60;223.40;;;;;;;19.44;100.00;98953.13;406244;24;1357;-73
2022/06/11 00:21:24;;;;;;;362.15;220.45;;;;;;;19.43;100.00;98950.59;408250;24;1207;-73
2022/06/11 00:21:35;;;;;;;366.00;221.98;;;;;;;19.45;100.00;98953.97;406482;24;851;-73
2022/06/11 00:21:47;;;;;;;363.95;224.10;;;;;;;19.42;100.00;98955.06;406154;24;1013;-73
2022/06/11 00:21:58;;;;;;;362.85;225.82;;;;;;;19.41;100.00;98952.56;406075;24;868;-73
2022/06/11 00:22:09;;;;;;;363.15;227.38;;;;;;;19.37;100.00;98954.63;407904;24;1175;-73
2022/06/11 00:22:20;;;;;;;366.17;227.05;;;;;;;19.33;100.00;98955.88;411597;23;1404;-73
2022/06/11 00:22:30;;;;;;;365.92;224.90;;;;;;;19.32;100.00;98948.88;411706;23;839;-74
2022/06/11 00:22:41;;;;;;;363.40;219.57;;;;;;;19.32;100.00;98948.88;409959;24;1365;-75
2022/06/11 00:22:51;;;;;;;359.67;217.63;;;;;;;19.31;100.00;98949.84;409332;24;1016;-75
2022/06/11 00:23:02;;;;;;;358.92;217.75;;;;;;;19.24;100.00;98951.38;408096;24;859;-75
2022/06/11 00:23:12;;;;;;;361.35;224.02;;;;;;;19.21;100.00;98948.97;409946;24;1337;-75
2022/06/11 00:23:23;;;;;;;365.60;227.73;;;;;;;19.19;100.00;98948.28;410190;24;699;-75
2022/06/11 00:23:33;;;;;;;365.25;227.35;;;;;;;19.22;100.00;98958.63;411226;23;1210;-74
2022/06/11 00:23:44;;;;;;;366.30;228.47;;;;;;;19.20;100.00;98942.81;412159;23;862;-74
2022/06/11 00:23:54;;;;;;;366.88;229.15;;;;;;;19.23;100.00;98952.34;411971;23;1256;-75
2022/06/11 00:24:05;;;;;;;366.50;227.50;;;;;;;19.22;100.00;98948.00;409815;24;1277;-74
2022/06/11 00:24:15;;;;;;;367.65;227.45;;;;;;;19.24;100.00;98951.38;408115;24;1269;-75
2022/06/11 00:24:26;;;;;;;366.87;226.97;;;;;;;19.24;100.00;98946.91;408442;24;1233;-74
2022/06/11 00:24:38;;;;;;;367.90;228.20;;;;;;;19.28;100.00;98947.47;404518;24;1200;-74
2022/06/11 00:24:48;;;;;;;365.83;227.10;;;;;;;19.29;100.00;98949.16;406148;24;797;-74
2022/06/11 00:24:59;;;;;;;365.73;224.93;;;;;;;19.28;100.00;98947.47;406259;24;829;-74
2022/06/11 00:25:09;;;;;;;363.95;222.35;;;;;;;19.29;100.00;98946.50;407633;24;1274;-74
2022/06/11 00:25:20;;;;;;;364.93;224.00;;;;;;;19.30;100.00;98947.34;411766;23;1186;-74
2022/06/11 00:25:32;;;;;;;366.58;227.13;;;;;;;19.28;100.00;98943.00;411766;23;824;-74
2022/06/11 00:25:43;;;;;;;365.33;225.18;;;;;;;19.29;100.00;98949.16;411777;23;802;-74
2022/06/11 00:25:54;;;;;;;364.77;224.00;;;;;;;19.30;100.00;98944.69;411659;23;1412;-74
2022/06/11 00:26:04;;;;;;;363.23;223.70;;;;;;;19.31;100.00;98952.50;410012;24;1335;-74
2022/06/11 00:26:15;;;;;;;363.52;223.32;;;;;;;19.31;100.00;98949.84;410620;23;1304;-74
2022/06/11 00:26:25;;;;;;;363.50;225.67;;;;;;;19.31;100.00;98944.56;411631;23;833;-75
2022/06/11 00:26:36;;;;;;;366.63;228.20;;;;;;;19.30;100.00;98945.53;410255;24;980;-74
2022/06/11 00:26:48;;;;;;;365.20;225.20;;;;;;;19.32;100.00;98951.53;408046;24;1087;-74
2022/06/11 00:26:59;;;;;;;361.90;220.85;;;;;;;19.35;100.00;98942.47;406278;24;807;-74
2022/06/11 00:27:10;;;;;;;360.95;219.98;;;;;;;19.36;100.00;98945.00;407904;24;1399;-74
2022/06/11 00:27:20;;;;;;;363.75;223.88;;;;;;;19.37;100.00;98944.03;411835;23;1306;-74
2022/06/11 00:27:31;;;;;;;364.48;222.60;;;;;;;19.39;100.00;98949.19;409912;24;811;-74
2022/06/11 00:27:41;;;;;;;364.63;219.20;;;;;;;19.39;100.00;98942.06;410061;24;820;-74
2022/06/11 00:27:52;;;;;;;366.50;221.07;;;;;;;19.41;100.00;98948.09;410001;24;1159;-74
2022/06/11 00:28:03;;;;;;;367.57;223.93;;;;;;;19.43;100.00;98940.81;405992;24;841;-74
2022/06/11 00:28:14;;;;;;;365.90;226.82;;;;;;;19.43;100.00;98947.94;406188;24;900;-74
2022/06/11 00:28:24;;;;;;;363.45;222.60;;;;;;;19.43;100.00;98940.81;406202;24;1385;-74
2022/06/11 00:28:35;;;;;;;363.60;223.30;;;;;;;19.40;100.00;98951.72;407983;24;1314;-74
2022/06/11 00:28:45;;;;;;;363.33;220.30;;;;;;;19.38;100.00;98951.00;409777;24;816;-74
2022/06/11 00:28:57;;;;;;;364.93;224.80;;;;;;;19.32;100.00;98948.88;407996;24;860;-74
2022/06/11 00:29:07;;;;;;;363.92;223.13;;;;;;;19.30;100.00;98948.19;411827;23;1555;-74
2022/06/11 00:29:19;;;;;;;368.08;229.65;;;;;;;19.31;100.00;98946.38;411872;23;1470;-74
2022/06/11 00:29:31;;;;;;;366.90;228.32;;;;;;;19.29;100.00;98946.50;408177;24;1287;-74
2022/06/11 00:29:42;;;;;;;367.75;230.82;;;;;;;19.25;100.00;98942.44;408662;24;848;-74
2022/06/11 00:29:52;;;;;;;367.48;228.85;;;;;;;19.24;100.00;98948.72;407969;24;1784;-74
2022/06/11 00:30:04;;;;;;;369.77;229.90;;;;;;;19.22;100.00;98938.22;409730;24;864;-73
2022/06/11 00:30:16;;;;;;;366.26;226.28;;;;;;;19.25;100.00;98947.72;407982;24;1517;-74
2022/06/11 00:30:26;;;;;;;364.83;227.45;;;;;;;19.25;100.00;98945.09;411571;23;793;-73
2022/06/11 00:30:37;;;;;;;365.70;228.80;;;;;;;19.27;100.00;98943.13;410124;24;1180;-73
2022/06/11 00:30:47;;;;;;;366.45;230.27;;;;;;;19.28;100.00;98944.81;409659;24;1365;-74
2022/06/11 00:30:58;;;;;;;369.65;229.30;;;;;;;19.24;100.00;98946.91;405979;24;845;-73
2022/06/11 00:31:10;;;;;;;370.80;229.10;;;;;;;19.18;100.00;98943.94;409943;24;1273;-75
2022/06/11 00:31:22;;;;;;;370.27;229.35;;;;;;;19.13;100.00;98946.97;409983;24;850;-75
2022/06/11 00:31:32;;;;;;;366.25;225.65;;;;;;;19.13;100.00;98948.78;409959;24;1146;-73
2022/06/11 00:31:43;;;;;;;366.10;227.37;;;;;;;19.15;100.00;98946.84;410148;24;908;-75
2022/06/11 00:31:53;;;;;;;366.88;227.75;;;;;;;19.17;100.00;98948.41;410049;24;1094;-74
2022/06/11 00:32:04;;;;;;;368.60;228.73;;;;;;;19.18;100.00;98951.88;407838;24;943;-75
2022/06/11 00:32:14;;;;;;;367.08;227.52;;;;;;;19.19;100.00;98942.97;409933;24;1258;-74
2022/06/11 00:32:25;;;;;;;366.75;225.48;;;;;;;19.20;100.00;98939.34;408216;24;833;-74
2022/06/11 00:32:35;;;;;;;366.47;227.50;;;;;;;19.21;100.00;98944.50;408117;24;960;-75
2022/06/11 00:32:48;;;;;;;366.83;225.18;;;;;;;19.22;100.00;98942.69;409946;24;1285;-74
2022/06/11 00:32:58;;;;;;;365.48;227.75;;;;;;;19.26;100.00;98947.59;407880;24;985;-74
2022/06/11 00:33:08;;;;;;;365.73;229.18;;;;;;;19.25;100.00;98945.09;409974;24;1459;-74
2022/06/11 00:33:19;;;;;;;367.77;231.70;;;;;;;19.26;100.00;98950.25;408264;24;1059;-74
2022/06/11 00:33:30;;;;;;;371.42;232.48;;;;;;;19.21;100.00;98941.84;407906;24;853;-74
2022/06/11 00:33:41;;;;;;;367.77;228.45;;;;;;;19.21;100.00;98946.31;408210;24;1229;-74
2022/06/11 00:33:51;;;;;;;366.73;227.90;;;;;;;19.18;100.00;98943.94;410039;24;724;-74
2022/06/11 00:34:02;;;;;;;365.83;225.02;;;;;;;19.20;100.00;98947.28;410070;24;1414;-74
2022/06/11 00:34:13;;;;;;;367.88;227.13;;;;;;;19.18;100.00;98941.28;407672;24;1485;-75
2022/06/11 00:34:24;;;;;;;366.90;226.48;;;;;;;19.17;100.00;98940.44;409823;24;1269;-74
2022/06/11 00:34:34;;;;;;;368.50;230.75;;;;;;;19.18;100.00;98951.88;409379;24;946;-74
2022/06/11 00:34:45;;;;;;;368.63;230.10;;;;;;;19.15;100.00;98945.03;409286;24;925;-74
2022/06/11 00:34:59;;;;;;;370.50;230.82;;;;;;;19.14;100.00;98942.53;411609;23;774;-74
2022/06/11 00:35:10;;;;;;;371.42;230.57;;;;;;;19.11;100.00;98940.97;413577;23;5070;-74
2022/06/11 00:35:22;;;;;;;371.90;234.50;;;;;;;19.11;100.00;98945.44;411675;23;1389;-73
2022/06/11 00:35:33;;;;;;;369.35;232.90;;;;;;;19.09;100.00;98945.56;411396;23;1274;-74
2022/06/11 00:35:43;;;;;;;367.65;230.90;;;;;;;19.06;100.00;98947.69;408064;24;833;-74
2022/06/11 00:35:54;;;;;;;369.57;232.73;;;;;;;19.05;100.00;98938.03;411585;23;1164;-74
2022/06/11 00:36:05;;;;;;;368.48;231.45;;;;;;;19.05;100.00;98946.00;413951;23;1909;-74
2022/06/11 00:36:16;;;;;;;366.50;227.70;;;;;;;19.08;100.00;98943.03;411826;23;1173;-74
2022/06/11 00:36:26;;;;;;;368.90;226.40;;;;;;;19.09;100.00;98942.91;407822;24;972;-73
2022/06/11 00:36:37;;;;;;;369.23;223.07;;;;;;;19.10;100.00;98946.41;409783;24;1409;-73
2022/06/11 00:36:48;;;;;;;368.20;222.57;;;;;;;19.12;100.00;98942.66;409939;24;1189;-74
2022/06/11 00:36:58;;;;;;;365.08;221.95;;;;;;;19.13;100.00;98943.50;409695;24;1366;-74
2022/06/11 00:37:10;;;;;;;365.80;225.33;;;;;;;19.13;100.00;98951.44;408099;24;885;-73
2022/06/11 00:37:20;;;;;;;367.77;226.85;;;;;;;19.11;100.00;98942.78;411757;23;1385;-73
2022/06/11 00:37:31;;;;;;;370.08;230.98;;;;;;;19.08;100.00;98951.00;411346;23;1382;-75
2022/06/11 00:37:41;;;;;;;374.20;233.67;;;;;;;19.08;100.00;98943.03;408103;24;803;-75
2022/06/11 00:37:52;;;;;;;373.85;231.93;;;;;;;19.06;100.00;98945.84;411580;23;897;-73
2022/06/11 00:38:02;;;;;;;373.50;231.50;;;;;;;19.08;100.00;98946.53;411078;23;767;-73
2022/06/11 00:38:13;;;;;;;371.65;230.80;;;;;;;19.09;100.00;98942.06;412128;23;886;-74
2022/06/11 00:38:24;;;;;;;373.63;231.30;;;;;;;19.14;100.00;98950.47;406327;24;1668;-75
2022/06/11 00:38:35;;;;;;;373.93;232.10;;;;;;;19.15;100.00;98945.03;405904;24;876;-74
2022/06/11 00:38:46;;;;;;;373.00;231.68;;;;;;;19.17;100.00;98945.75;409682;24;1342;-74
2022/06/11 00:38:57;;;;;;;372.30;233.00;;;;;;;19.18;100.00;98942.13;411777;23;1389;-73
2022/06/11 00:39:08;;;;;;;372.48;231.50;;;;;;;19.23;100.00;98944.38;413742;23;1004;-74
2022/06/11 00:39:21;;;;;;;370.57;229.37;;;;;;;19.25;100.00;98942.44;413793;23;916;-74
2022/06/11 00:39:33;;;;;;;369.60;228.77;;;;;;;19.27;100.00;98943.97;409416;24;1363;-73
2022/06/11 00:39:44;;;;;;;369.85;228.85;;;;;;;19.29;100.00;98943.84;410664;23;848;-74
2022/06/11 00:39:55;;;;;;;368.15;227.98;;;;;;;19.31;100.00;98947.19;410087;23;1440;-73
2022/06/11 00:40:06;;;;;;;365.27;224.93;;;;;;;19.33;100.00;98945.25;409878;24;694;-74
2022/06/11 00:40:18;;;;;;;363.05;220.85;;;;;;;19.33;100.00;98939.94;408262;24;1531;-73
2022/06/11 00:40:30;;;;;;;364.30;222.27;;;;;;;19.31;100.00;98947.19;409715;24;1565;-74
2022/06/11 00:40:42;;;;;;;371.15;224.82;;;;;;;19.31;100.00;98947.19;413796;23;1244;-73
2022/06/11 00:40:53;;;;;;;373.17;225.40;;;;;;;19.32;100.00;98948.88;411890;23;953;-73
2022/06/11 00:41:04;;;;;;;371.15;225.52;;;;;;;19.33;100.00;98950.56;409996;24;1188;-73
2022/06/11 00:41:16;;;;;;;368.27;225.75;;;;;;;19.35;100.00;98948.63;409983;24;1448;-73
2022/06/11 00:41:27;;;;;;;367.38;228.45;;;;;;;19.36;100.00;98945.00;406080;24;976;-75
2022/06/11 00:41:39;;;;;;;367.55;229.82;;;;;;;19.36;100.00;98945.00;409796;24;1292;-74
2022/06/11 00:41:51;;;;;;;366.42;229.60;;;;;;;19.37;100.00;98946.66;409507;24;1449;-74
2022/06/11 00:42:08;;;;;;;366.80;226.48;;;;;;;19.37;100.00;98946.66;413713;23;1420;-74
2022/06/11 00:42:22;;;;;;;369.95;229.05;;;;;;;19.36;100.00;98942.34;413530;23;4903;-74
2022/06/11 00:42:33;;;;;;;369.85;232.63;;;;;;;19.36;100.00;98944.16;409898;24;4757;-73
2022/06/11 00:42:44;;;;;;;365.50;229.68;;;;;;;19.37;100.00;98941.38;406248;24;1103;-74
2022/06/11 00:42:54;;;;;;;363.47;226.37;;;;;;;19.37;100.00;98944.03;409677;24;1184;-74
2022/06/11 00:43:06;;;;;;;363.05;224.63;;;;;;;19.38;100.00;98944.84;409841;24;933;-75
2022/06/11 00:43:18;;;;;;;362.84;220.74;;;;;;;19.36;100.00;98945.00;409990;24;1748;-74
2022/06/11 00:43:29;;;;;;;363.88;221.98;;;;;;;19.37;100.00;98941.38;408137;24;1385;-75
2022/06/11 00:43:39;;;;;;;365.47;225.23;;;;;;;19.38;100.00;98943.03;410055;24;1073;-75
2022/06/11 00:43:52;;;;;;;368.55;230.95;;;;;;;19.39;100.00;98942.06;409970;24;1250;-75
2022/06/11 00:44:03;;;;;;;367.38;231.85;;;;;;;19.40;100.00;98946.41;409861;24;1411;-75
2022/06/11 00:44:13;;;;;;;368.97;230.23;;;;;;;19.39;100.00;98938.56;410039;24;800;-75
2022/06/11 00:44:24;;;;;;;364.70;224.07;;;;;;;19.40;100.00;98935.78;409560;24;1453;-75
2022/06/11 00:44:34;;;;;;;361.38;219.90;;;;;;;19.41;100.00;98942.78;407103;24;1209;-75
2022/06/11 00:44:45;;;;;;;359.07;220.00;;;;;;;19.41;100.00;98942.78;412481;23;1166;-74
2022/06/11 00:45:35;;;;;;;364.55;227.10;;;;;;;19.47;100.00;98947.53;410811;23;1320;-75
2022/06/11 00:46:16;;;;;;;360.52;219.45;;;;;;;19.46;100.00;98948.53;402138;24;1477;-75
2022/06/11 00:46:48;;;;;;;363.27;223.98;;;;;;;19.41;100.00;98940.13;402221;24;815;-75
2022/06/11 00:46:59;;;;;;;363.02;222.30;;;;;;;19.41;100.00;98941.94;404074;24;870;-75
2022/06/11 00:47:14;;;;;;;365.05;223.98;;;;;;;19.42;100.00;98939.16;404212;24;882;-74
2022/06/11 00:47:25;;;;;;;365.65;222.90;;;;;;;19.44;100.00;98944.31;402295;24;1278;-75
2022/06/11 00:47:36;;;;;;;367.00;224.02;;;;;;;19.44;100.00;98939.84;402090;24;862;-74
2022/06/11 00:48:14;;;;;;;365.63;221.87;;;;;;;19.43;100.00;98943.47;405848;24;1302;-73
2022/06/11 00:48:51;;;;;;;361.00;218.45;;;;;;;19.48;100.00;98941.25;404269;24;867;-73
2022/06/11 00:49:02;;;;;;;364.27;224.18;;;;;;;19.46;100.00;98940.56;403585;24;956;-73
2022/06/11 00:49:19;;;;;;;364.17;223.40;;;;;;;19.47;100.00;98947.53;401807;24;957;-73
2022/06/11 00:49:45;;;;;;;362.15;219.70;;;;;;;19.48;100.00;98943.91;402267;24;849;-75
2022/06/11 00:49:58;;;;;;;366.02;226.48;;;;;;;19.48;100.00;98943.91;401402;24;826;-74
2022/06/11 00:50:37;;;;;;;366.17;226.35;;;;;;;19.49;100.00;98942.94;402164;24;833;-74
2022/06/11 00:50:55;;;;;;;364.20;219.48;;;;;;;19.50;100.00;98939.28;407736;24;895;-74
2022/06/11 00:51:13;;;;;;;367.15;223.18;;;;;;;19.44;100.00;98945.16;405665;24;1630;-75
2022/06/11 00:51:24;;;;;;;364.88;227.75;;;;;;;19.39;100.00;98944.72;404088;24;901;-74
2022/06/11 00:51:34;;;;;;;367.73;231.03;;;;;;;19.38;100.00;98940.38;400530;24;1734;-74
2022/06/11 00:51:45;;;;;;;368.45;229.98;;;;;;;19.39;100.00;98942.06;402152;24;842;-74
2022/06/11 00:52:19;;;;;;;367.17;228.02;;;;;;;19.38;100.00;98943.03;411557;23;1160;-73
2022/06/11 00:52:37;;;;;;;363.04;219.44;;;;;;;19.41;100.00;98945.44;409932;24;719;-74
2022/06/11 00:52:47;;;;;;;368.02;227.07;;;;;;;19.42;100.00;98943.63;406071;24;786;-74
2022/06/11 00:52:58;;;;;;;367.03;229.47;;;;;;;19.42;100.00;98944.44;405940;24;1172;-73
2022/06/11 00:53:37;;;;;;;364.90;227.93;;;;;;;19.38;100.00;98942.19;406055;24;869;-74
2022/06/11 00:53:50;;;;;;;366.98;224.68;;;;;;;19.38;100.00;98940.38;404525;24;1173;-74
2022/06/11 00:54:04;;;;;;;367.98;227.15;;;;;;;19.39;100.00;98939.41;409151;24;1377;-74
2022/06/11 00:54:16;;;;;;;370.65;231.07;;;;;;;19.38;100.00;98940.38;411333;23;1420;-74
2022/06/11 00:54:27;;;;;;;372.58;230.80;;;;;;;19.38;100.00;98947.50;411463;23;1134;-73
2022/06/11 00:54:38;;;;;;;375.47;232.07;;;;;;;19.36;100.00;98950.31;408195;24;1151;-75
2022/06/11 00:55:01;;;;;;;374.95;229.95;;;;;;;19.27;100.00;98945.78;407930;24;1254;-74
2022/06/11 00:55:21;;;;;;;362.70;220.30;;;;;;;19.18;100.00;98949.25;405866;24;917;-74
2022/06/11 00:55:36;;;;;;;364.52;225.55;;;;;;;19.16;100.00;98940.56;407951;24;837;-74
2022/06/11 00:55:46;;;;;;;362.92;221.75;;;;;;;19.16;100.00;98948.53;409853;23;1367;-74
2022/06/11 00:55:57;;;;;;;364.30;221.80;;;;;;;19.17;100.00;98948.41;409915;24;695;-76